sensor_id;sensor_type;location;lat;lon;timestamp;P1;durP1;ratioP1;P2;durP2;ratioP2
36377;SDS011;22402;42.746;23.606;2023-02-01T00:00:44;22.37;;;6.90;;
36377;SDS011;22402;42.746;23.606;2023-02-01T00:03:12;27.30;;;7.47;;
36377;SDS011;22402;42.746;23.606;2023-02-01T00:05:38;17.97;;;6.07;;
36377;SDS011;22402;42.746;23.606;2023-02-01T00:08:03;19.20;;;5.73;;
36377;SDS011;22402;42.746;23.606;2023-02-01T00:10:29;27.00;;;9.10;;
36377;SDS011;22402;42.746;23.606;2023-02-01T00:12:54;25.80;;;8.17;;
36377;SDS011;22402;42.746;23.606;2023-02-01T00:15:19;34.03;;;8.63;;
36377;SDS011;22402;42.746;23.606;2023-02-01T00:17:45;29.10;;;8.03;;
36377;SDS011;22402;42.746;23.606;2023-02-01T00:20:10;32.03;;;8.57;;
36377;SDS011;22402;42.746;23.606;2023-02-01T00:22:36;28.93;;;9.10;;
36377;SDS011;22402;42.746;23.606;2023-02-01T00:25:01;31.57;;;11.07;;
36377;SDS011;22402;42.746;23.606;2023-02-01T00:27:26;37.10;;;13.90;;
36377;SDS011;22402;42.746;23.606;2023-02-01T00:29:53;23.03;;;8.30;;
36377;SDS011;22402;42.746;23.606;2023-02-01T00:32:19;25.63;;;6.97;;
36377;SDS011;22402;42.746;23.606;2023-02-01T00:34:44;37.43;;;8.27;;
36377;SDS011;22402;42.746;23.606;2023-02-01T00:37:10;21.20;;;6.33;;
36377;SDS011;22402;42.746;23.606;2023-02-01T00:39:35;25.87;;;6.40;;
36377;SDS011;22402;42.746;23.606;2023-02-01T00:42:00;17.17;;;5.30;;
36377;SDS011;22402;42.746;23.606;2023-02-01T00:44:26;30.47;;;6.90;;
36377;SDS011;22402;42.746;23.606;2023-02-01T00:46:51;27.27;;;6.30;;
36377;SDS011;22402;42.746;23.606;2023-02-01T00:49:16;17.93;;;5.00;;
36377;SDS011;22402;42.746;23.606;2023-02-01T00:51:42;22.43;;;6.03;;
36377;SDS011;22402;42.746;23.606;2023-02-01T00:54:07;18.53;;;5.57;;
36377;SDS011;22402;42.746;23.606;2023-02-01T00:56:33;30.23;;;7.47;;
36377;SDS011;22402;42.746;23.606;2023-02-01T00:58:58;22.10;;;6.10;;
36377;SDS011;22402;42.746;23.606;2023-02-01T01:01:27;20.90;;;5.30;;
36377;SDS011;22402;42.746;23.606;2023-02-01T01:03:56;18.77;;;4.97;;
36377;SDS011;22402;42.746;23.606;2023-02-01T01:06:25;17.67;;;6.00;;
36377;SDS011;22402;42.746;23.606;2023-02-01T01:08:55;21.80;;;6.50;;
36377;SDS011;22402;42.746;23.606;2023-02-01T01:11:24;24.07;;;6.50;;
36377;SDS011;22402;42.746;23.606;2023-02-01T01:13:55;22.50;;;7.07;;
36377;SDS011;22402;42.746;23.606;2023-02-01T01:16:23;19.47;;;7.60;;
36377;SDS011;22402;42.746;23.606;2023-02-01T01:18:49;22.30;;;6.87;;
36377;SDS011;22402;42.746;23.606;2023-02-01T01:21:16;18.33;;;6.60;;
36377;SDS011;22402;42.746;23.606;2023-02-01T01:23:42;28.93;;;8.20;;
36377;SDS011;22402;42.746;23.606;2023-02-01T01:26:11;21.70;;;7.03;;
36377;SDS011;22402;42.746;23.606;2023-02-01T01:28:39;28.13;;;8.63;;
36377;SDS011;22402;42.746;23.606;2023-02-01T01:31:07;28.57;;;7.87;;
36377;SDS011;22402;42.746;23.606;2023-02-01T01:33:33;27.47;;;7.90;;
36377;SDS011;22402;42.746;23.606;2023-02-01T01:35:58;20.27;;;6.67;;
36377;SDS011;22402;42.746;23.606;2023-02-01T01:38:24;27.43;;;7.80;;
36377;SDS011;22402;42.746;23.606;2023-02-01T01:40:49;25.73;;;7.83;;
36377;SDS011;22402;42.746;23.606;2023-02-01T01:43:15;30.17;;;9.00;;
36377;SDS011;22402;42.746;23.606;2023-02-01T01:45:43;26.07;;;9.30;;
36377;SDS011;22402;42.746;23.606;2023-02-01T01:48:23;37.13;;;12.63;;
36377;SDS011;22402;42.746;23.606;2023-02-01T01:50:58;29.30;;;12.47;;
36377;SDS011;22402;42.746;23.606;2023-02-01T01:53:37;44.87;;;15.60;;
36377;SDS011;22402;42.746;23.606;2023-02-01T01:56:08;41.13;;;16.10;;
36377;SDS011;22402;42.746;23.606;2023-02-01T01:58:33;29.07;;;13.20;;
36377;SDS011;22402;42.746;23.606;2023-02-01T02:00:59;27.20;;;10.30;;
36377;SDS011;22402;42.746;23.606;2023-02-01T02:03:35;31.37;;;10.30;;
36377;SDS011;22402;42.746;23.606;2023-02-01T02:06:05;26.73;;;9.00;;
36377;SDS011;22402;42.746;23.606;2023-02-01T02:08:39;28.53;;;8.97;;
36377;SDS011;22402;42.746;23.606;2023-02-01T02:11:04;26.20;;;8.97;;
36377;SDS011;22402;42.746;23.606;2023-02-01T02:21:41;23.03;;;8.10;;
36377;SDS011;22402;42.746;23.606;2023-02-01T02:27:48;26.17;;;8.63;;
36377;SDS011;22402;42.746;23.606;2023-02-01T02:43:45;25.23;;;10.03;;
36377;SDS011;22402;42.746;23.606;2023-02-01T02:46:23;27.20;;;11.40;;
36377;SDS011;22402;42.746;23.606;2023-02-01T02:49:01;35.20;;;11.97;;
36377;SDS011;22402;42.746;23.606;2023-02-01T02:51:47;35.53;;;11.33;;
36377;SDS011;22402;42.746;23.606;2023-02-01T02:54:24;27.77;;;10.27;;
36377;SDS011;22402;42.746;23.606;2023-02-01T02:56:56;30.63;;;9.50;;
36377;SDS011;22402;42.746;23.606;2023-02-01T02:59:24;25.23;;;8.63;;
36377;SDS011;22402;42.746;23.606;2023-02-01T03:01:51;36.47;;;13.37;;
36377;SDS011;22402;42.746;23.606;2023-02-01T03:04:17;34.70;;;10.50;;
36377;SDS011;22402;42.746;23.606;2023-02-01T03:06:45;22.77;;;8.60;;
36377;SDS011;22402;42.746;23.606;2023-02-01T03:09:34;26.50;;;9.17;;
36377;SDS011;22402;42.746;23.606;2023-02-01T03:12:03;22.33;;;8.13;;
36377;SDS011;22402;42.746;23.606;2023-02-01T03:14:36;49.47;;;12.30;;
36377;SDS011;22402;42.746;23.606;2023-02-01T03:17:08;26.20;;;8.30;;
36377;SDS011;22402;42.746;23.606;2023-02-01T03:19:39;38.67;;;9.17;;
36377;SDS011;22402;42.746;23.606;2023-02-01T03:22:08;20.27;;;7.10;;
36377;SDS011;22402;42.746;23.606;2023-02-01T03:24:40;31.63;;;8.27;;
36377;SDS011;22402;42.746;23.606;2023-02-01T03:30:03;35.07;;;9.70;;
36377;SDS011;22402;42.746;23.606;2023-02-01T03:32:43;30.03;;;8.43;;
36377;SDS011;22402;42.746;23.606;2023-02-01T03:35:11;20.93;;;6.87;;
36377;SDS011;22402;42.746;23.606;2023-02-01T03:37:37;35.23;;;9.23;;
36377;SDS011;22402;42.746;23.606;2023-02-01T03:40:05;49.37;;;11.83;;
36377;SDS011;22402;42.746;23.606;2023-02-01T03:42:38;51.20;;;11.60;;
36377;SDS011;22402;42.746;23.606;2023-02-01T03:45:28;30.70;;;8.47;;
36377;SDS011;22402;42.746;23.606;2023-02-01T03:50:57;31.60;;;9.00;;
36377;SDS011;22402;42.746;23.606;2023-02-01T03:53:25;29.00;;;8.60;;
36377;SDS011;22402;42.746;23.606;2023-02-01T03:55:51;30.53;;;9.17;;
36377;SDS011;22402;42.746;23.606;2023-02-01T03:58:19;28.67;;;9.00;;
36377;SDS011;22402;42.746;23.606;2023-02-01T04:00:46;25.30;;;8.50;;
36377;SDS011;22402;42.746;23.606;2023-02-01T04:03:17;22.57;;;7.73;;
36377;SDS011;22402;42.746;23.606;2023-02-01T04:05:43;19.67;;;7.37;;
36377;SDS011;22402;42.746;23.606;2023-02-01T04:08:08;28.90;;;8.53;;
36377;SDS011;22402;42.746;23.606;2023-02-01T04:10:34;24.87;;;8.43;;
36377;SDS011;22402;42.746;23.606;2023-02-01T04:12:59;22.97;;;7.60;;
36377;SDS011;22402;42.746;23.606;2023-02-01T04:15:25;23.33;;;7.50;;
36377;SDS011;22402;42.746;23.606;2023-02-01T04:17:51;27.10;;;8.20;;
36377;SDS011;22402;42.746;23.606;2023-02-01T04:20:16;27.63;;;9.17;;
36377;SDS011;22402;42.746;23.606;2023-02-01T04:22:43;26.03;;;8.20;;
36377;SDS011;22402;42.746;23.606;2023-02-01T04:25:09;29.40;;;9.13;;
36377;SDS011;22402;42.746;23.606;2023-02-01T04:27:34;35.63;;;10.43;;
36377;SDS011;22402;42.746;23.606;2023-02-01T04:30:00;28.40;;;9.73;;
36377;SDS011;22402;42.746;23.606;2023-02-01T04:32:25;44.50;;;12.50;;
36377;SDS011;22402;42.746;23.606;2023-02-01T04:34:51;27.10;;;9.33;;
36377;SDS011;22402;42.746;23.606;2023-02-01T04:37:16;23.97;;;9.13;;
36377;SDS011;22402;42.746;23.606;2023-02-01T04:39:42;32.87;;;10.17;;
36377;SDS011;22402;42.746;23.606;2023-02-01T04:42:07;24.77;;;9.40;;
36377;SDS011;22402;42.746;23.606;2023-02-01T04:44:32;30.77;;;9.23;;
36377;SDS011;22402;42.746;23.606;2023-02-01T04:46:58;40.60;;;11.77;;
36377;SDS011;22402;42.746;23.606;2023-02-01T04:49:23;21.80;;;7.43;;
36377;SDS011;22402;42.746;23.606;2023-02-01T04:51:48;25.40;;;9.10;;
36377;SDS011;22402;42.746;23.606;2023-02-01T04:54:14;29.20;;;9.07;;
36377;SDS011;22402;42.746;23.606;2023-02-01T04:56:39;24.83;;;7.93;;
36377;SDS011;22402;42.746;23.606;2023-02-01T04:59:05;28.10;;;9.17;;
36377;SDS011;22402;42.746;23.606;2023-02-01T05:01:31;27.17;;;9.20;;
36377;SDS011;22402;42.746;23.606;2023-02-01T05:03:57;42.80;;;11.97;;
36377;SDS011;22402;42.746;23.606;2023-02-01T05:06:22;29.50;;;10.00;;
36377;SDS011;22402;42.746;23.606;2023-02-01T05:08:48;25.20;;;8.73;;
36377;SDS011;22402;42.746;23.606;2023-02-01T05:11:14;19.60;;;7.20;;
36377;SDS011;22402;42.746;23.606;2023-02-01T05:13:39;36.87;;;12.63;;
36377;SDS011;22402;42.746;23.606;2023-02-01T05:16:04;19.30;;;8.70;;
36377;SDS011;22402;42.746;23.606;2023-02-01T05:18:30;19.67;;;8.13;;
36377;SDS011;22402;42.746;23.606;2023-02-01T05:20:58;27.50;;;8.47;;
36377;SDS011;22402;42.746;23.606;2023-02-01T05:23:24;28.87;;;9.67;;
36377;SDS011;22402;42.746;23.606;2023-02-01T05:25:49;20.43;;;8.30;;
36377;SDS011;22402;42.746;23.606;2023-02-01T05:28:14;22.77;;;8.90;;
36377;SDS011;22402;42.746;23.606;2023-02-01T05:30:40;24.90;;;8.07;;
36377;SDS011;22402;42.746;23.606;2023-02-01T05:33:05;23.27;;;7.40;;
36377;SDS011;22402;42.746;23.606;2023-02-01T05:35:31;23.10;;;7.23;;
36377;SDS011;22402;42.746;23.606;2023-02-01T05:37:56;26.50;;;9.07;;
36377;SDS011;22402;42.746;23.606;2023-02-01T05:40:21;19.10;;;7.43;;
36377;SDS011;22402;42.746;23.606;2023-02-01T05:42:47;21.57;;;7.17;;
36377;SDS011;22402;42.746;23.606;2023-02-01T05:45:12;18.93;;;8.27;;
36377;SDS011;22402;42.746;23.606;2023-02-01T05:47:38;19.00;;;6.90;;
36377;SDS011;22402;42.746;23.606;2023-02-01T05:50:04;19.43;;;7.63;;
36377;SDS011;22402;42.746;23.606;2023-02-01T05:52:30;17.13;;;7.70;;
36377;SDS011;22402;42.746;23.606;2023-02-01T05:54:55;18.87;;;7.60;;
36377;SDS011;22402;42.746;23.606;2023-02-01T05:57:21;24.23;;;8.33;;
36377;SDS011;22402;42.746;23.606;2023-02-01T05:59:46;15.97;;;7.03;;
36377;SDS011;22402;42.746;23.606;2023-02-01T06:02:12;22.63;;;8.33;;
36377;SDS011;22402;42.746;23.606;2023-02-01T06:04:38;17.57;;;7.90;;
36377;SDS011;22402;42.746;23.606;2023-02-01T06:07:03;24.83;;;8.33;;
36377;SDS011;22402;42.746;23.606;2023-02-01T06:09:28;29.47;;;9.20;;
36377;SDS011;22402;42.746;23.606;2023-02-01T06:11:54;18.70;;;7.40;;
36377;SDS011;22402;42.746;23.606;2023-02-01T06:14:19;22.53;;;8.53;;
36377;SDS011;22402;42.746;23.606;2023-02-01T06:16:45;20.90;;;7.67;;
36377;SDS011;22402;42.746;23.606;2023-02-01T06:19:10;23.30;;;7.87;;
36377;SDS011;22402;42.746;23.606;2023-02-01T06:21:36;23.00;;;9.07;;
36377;SDS011;22402;42.746;23.606;2023-02-01T06:24:01;21.60;;;7.60;;
36377;SDS011;22402;42.746;23.606;2023-02-01T06:26:27;19.50;;;7.07;;
36377;SDS011;22402;42.746;23.606;2023-02-01T06:28:52;22.20;;;8.30;;
36377;SDS011;22402;42.746;23.606;2023-02-01T06:31:17;18.67;;;6.47;;
36377;SDS011;22402;42.746;23.606;2023-02-01T06:33:43;21.67;;;6.27;;
36377;SDS011;22402;42.746;23.606;2023-02-01T06:36:09;17.03;;;6.63;;
36377;SDS011;22402;42.746;23.606;2023-02-01T06:38:35;19.60;;;7.40;;
36377;SDS011;22402;42.746;23.606;2023-02-01T06:41:00;18.60;;;6.77;;
36377;SDS011;22402;42.746;23.606;2023-02-01T06:43:26;17.80;;;6.60;;
36377;SDS011;22402;42.746;23.606;2023-02-01T06:45:52;22.23;;;7.43;;
36377;SDS011;22402;42.746;23.606;2023-02-01T06:48:18;29.93;;;9.93;;
36377;SDS011;22402;42.746;23.606;2023-02-01T06:50:44;22.73;;;8.50;;
36377;SDS011;22402;42.746;23.606;2023-02-01T06:53:09;30.80;;;7.30;;
36377;SDS011;22402;42.746;23.606;2023-02-01T06:55:35;16.00;;;6.07;;
36377;SDS011;22402;42.746;23.606;2023-02-01T06:58:00;17.37;;;5.50;;
36377;SDS011;22402;42.746;23.606;2023-02-01T07:00:25;17.20;;;6.00;;
36377;SDS011;22402;42.746;23.606;2023-02-01T07:02:51;19.90;;;8.07;;
36377;SDS011;22402;42.746;23.606;2023-02-01T07:05:16;22.77;;;7.20;;
36377;SDS011;22402;42.746;23.606;2023-02-01T07:07:42;17.90;;;6.73;;
36377;SDS011;22402;42.746;23.606;2023-02-01T07:10:08;18.27;;;7.40;;
36377;SDS011;22402;42.746;23.606;2023-02-01T07:12:34;22.47;;;7.33;;
36377;SDS011;22402;42.746;23.606;2023-02-01T07:15:00;19.37;;;6.67;;
36377;SDS011;22402;42.746;23.606;2023-02-01T07:17:25;24.07;;;7.43;;
36377;SDS011;22402;42.746;23.606;2023-02-01T07:19:51;20.03;;;7.73;;
36377;SDS011;22402;42.746;23.606;2023-02-01T07:22:16;25.63;;;7.80;;
36377;SDS011;22402;42.746;23.606;2023-02-01T07:24:42;17.20;;;6.97;;
36377;SDS011;22402;42.746;23.606;2023-02-01T07:27:07;16.47;;;7.37;;
36377;SDS011;22402;42.746;23.606;2023-02-01T07:29:33;18.13;;;7.43;;
36377;SDS011;22402;42.746;23.606;2023-02-01T07:31:58;20.63;;;7.33;;
36377;SDS011;22402;42.746;23.606;2023-02-01T07:34:23;22.47;;;7.33;;
36377;SDS011;22402;42.746;23.606;2023-02-01T07:36:49;22.60;;;7.70;;
36377;SDS011;22402;42.746;23.606;2023-02-01T07:39:14;22.63;;;8.10;;
36377;SDS011;22402;42.746;23.606;2023-02-01T07:41:40;20.33;;;7.93;;
36377;SDS011;22402;42.746;23.606;2023-02-01T07:44:05;29.07;;;8.97;;
36377;SDS011;22402;42.746;23.606;2023-02-01T07:46:30;26.10;;;8.70;;
36377;SDS011;22402;42.746;23.606;2023-02-01T07:48:56;24.23;;;8.90;;
36377;SDS011;22402;42.746;23.606;2023-02-01T07:51:21;16.23;;;7.70;;
36377;SDS011;22402;42.746;23.606;2023-02-01T07:53:47;21.43;;;7.63;;
36377;SDS011;22402;42.746;23.606;2023-02-01T07:56:16;19.73;;;7.10;;
36377;SDS011;22402;42.746;23.606;2023-02-01T07:58:46;14.83;;;6.03;;
36377;SDS011;22402;42.746;23.606;2023-02-01T08:01:16;11.13;;;5.30;;
36377;SDS011;22402;42.746;23.606;2023-02-01T08:03:42;11.63;;;5.60;;
36377;SDS011;22402;42.746;23.606;2023-02-01T08:06:08;13.70;;;6.57;;
36377;SDS011;22402;42.746;23.606;2023-02-01T08:08:34;18.17;;;7.40;;
36377;SDS011;22402;42.746;23.606;2023-02-01T08:11:00;21.70;;;8.30;;
36377;SDS011;22402;42.746;23.606;2023-02-01T08:13:27;26.40;;;8.90;;
36377;SDS011;22402;42.746;23.606;2023-02-01T08:15:52;19.10;;;7.43;;
36377;SDS011;22402;42.746;23.606;2023-02-01T08:18:23;18.83;;;7.70;;
36377;SDS011;22402;42.746;23.606;2023-02-01T08:20:48;19.93;;;8.60;;
36377;SDS011;22402;42.746;23.606;2023-02-01T08:23:13;26.67;;;9.17;;
36377;SDS011;22402;42.746;23.606;2023-02-01T08:25:39;22.70;;;7.60;;
36377;SDS011;22402;42.746;23.606;2023-02-01T08:28:05;16.70;;;6.73;;
36377;SDS011;22402;42.746;23.606;2023-02-01T08:30:31;16.63;;;5.90;;
36377;SDS011;22402;42.746;23.606;2023-02-01T08:32:57;21.23;;;6.30;;
36377;SDS011;22402;42.746;23.606;2023-02-01T08:35:22;19.60;;;5.83;;
36377;SDS011;22402;42.746;23.606;2023-02-01T08:37:49;18.67;;;6.13;;
36377;SDS011;22402;42.746;23.606;2023-02-01T08:40:15;16.77;;;6.17;;
36377;SDS011;22402;42.746;23.606;2023-02-01T08:42:40;12.50;;;5.60;;
36377;SDS011;22402;42.746;23.606;2023-02-01T08:45:06;23.93;;;7.63;;
36377;SDS011;22402;42.746;23.606;2023-02-01T08:47:32;12.73;;;5.70;;
36377;SDS011;22402;42.746;23.606;2023-02-01T08:49:57;16.10;;;6.50;;
36377;SDS011;22402;42.746;23.606;2023-02-01T08:52:22;13.47;;;6.10;;
36377;SDS011;22402;42.746;23.606;2023-02-01T08:54:48;19.53;;;6.30;;
36377;SDS011;22402;42.746;23.606;2023-02-01T08:57:13;19.77;;;6.80;;
36377;SDS011;22402;42.746;23.606;2023-02-01T08:59:39;26.23;;;8.13;;
36377;SDS011;22402;42.746;23.606;2023-02-01T09:02:04;11.70;;;5.50;;
36377;SDS011;22402;42.746;23.606;2023-02-01T09:04:30;19.50;;;6.70;;
36377;SDS011;22402;42.746;23.606;2023-02-01T09:06:55;25.83;;;7.30;;
36377;SDS011;22402;42.746;23.606;2023-02-01T09:09:23;16.67;;;6.77;;
36377;SDS011;22402;42.746;23.606;2023-02-01T09:11:49;24.30;;;7.00;;
36377;SDS011;22402;42.746;23.606;2023-02-01T09:14:15;15.90;;;6.07;;
36377;SDS011;22402;42.746;23.606;2023-02-01T09:16:40;14.60;;;6.20;;
36377;SDS011;22402;42.746;23.606;2023-02-01T09:19:06;15.73;;;6.07;;
36377;SDS011;22402;42.746;23.606;2023-02-01T09:21:31;15.20;;;5.70;;
36377;SDS011;22402;42.746;23.606;2023-02-01T09:23:56;26.43;;;6.93;;
36377;SDS011;22402;42.746;23.606;2023-02-01T09:26:22;23.40;;;5.50;;
36377;SDS011;22402;42.746;23.606;2023-02-01T09:28:47;17.13;;;6.53;;
36377;SDS011;22402;42.746;23.606;2023-02-01T09:31:13;19.70;;;8.43;;
36377;SDS011;22402;42.746;23.606;2023-02-01T09:33:38;14.50;;;5.80;;
36377;SDS011;22402;42.746;23.606;2023-02-01T09:36:04;23.57;;;6.83;;
36377;SDS011;22402;42.746;23.606;2023-02-01T09:38:30;18.17;;;6.30;;
36377;SDS011;22402;42.746;23.606;2023-02-01T09:40:56;13.20;;;6.00;;
36377;SDS011;22402;42.746;23.606;2023-02-01T09:48:48;18.63;;;6.37;;
36377;SDS011;22402;42.746;23.606;2023-02-01T09:51:19;21.03;;;6.30;;
36377;SDS011;22402;42.746;23.606;2023-02-01T09:53:48;19.73;;;5.70;;
36377;SDS011;22402;42.746;23.606;2023-02-01T09:59:46;22.40;;;7.37;;
36377;SDS011;22402;42.746;23.606;2023-02-01T10:02:15;17.00;;;6.33;;
36377;SDS011;22402;42.746;23.606;2023-02-01T10:04:45;18.83;;;6.73;;
36377;SDS011;22402;42.746;23.606;2023-02-01T10:09:48;18.03;;;6.40;;
36377;SDS011;22402;42.746;23.606;2023-02-01T10:20:30;21.10;;;5.77;;
36377;SDS011;22402;42.746;23.606;2023-02-01T10:26:30;13.50;;;5.17;;
36377;SDS011;22402;42.746;23.606;2023-02-01T10:28:51;16.57;;;4.77;;
36377;SDS011;22402;42.746;23.606;2023-02-01T10:31:18;21.30;;;6.30;;
36377;SDS011;22402;42.746;23.606;2023-02-01T10:33:47;16.07;;;5.30;;
36377;SDS011;22402;42.746;23.606;2023-02-01T10:38:57;15.83;;;4.90;;
36377;SDS011;22402;42.746;23.606;2023-02-01T10:41:24;14.70;;;5.43;;
36377;SDS011;22402;42.746;23.606;2023-02-01T10:44:00;19.67;;;4.57;;
36377;SDS011;22402;42.746;23.606;2023-02-01T10:46:30;11.67;;;3.73;;
36377;SDS011;22402;42.746;23.606;2023-02-01T10:48:56;15.63;;;4.10;;
36377;SDS011;22402;42.746;23.606;2023-02-01T10:51:26;13.63;;;4.20;;
36377;SDS011;22402;42.746;23.606;2023-02-01T10:54:11;17.60;;;4.60;;
36377;SDS011;22402;42.746;23.606;2023-02-01T10:56:43;16.40;;;4.10;;
36377;SDS011;22402;42.746;23.606;2023-02-01T10:59:14;16.23;;;4.77;;
36377;SDS011;22402;42.746;23.606;2023-02-01T11:01:49;10.47;;;3.67;;
36377;SDS011;22402;42.746;23.606;2023-02-01T11:04:22;16.70;;;3.73;;
36377;SDS011;22402;42.746;23.606;2023-02-01T11:06:53;13.07;;;4.43;;
36377;SDS011;22402;42.746;23.606;2023-02-01T11:09:29;21.00;;;3.73;;
36377;SDS011;22402;42.746;23.606;2023-02-01T11:11:59;15.70;;;4.57;;
36377;SDS011;22402;42.746;23.606;2023-02-01T11:16:54;13.07;;;3.87;;
36377;SDS011;22402;42.746;23.606;2023-02-01T11:19:22;12.67;;;4.00;;
36377;SDS011;22402;42.746;23.606;2023-02-01T11:21:51;11.73;;;3.80;;
36377;SDS011;22402;42.746;23.606;2023-02-01T11:24:25;12.63;;;4.03;;
36377;SDS011;22402;42.746;23.606;2023-02-01T11:26:57;16.47;;;4.43;;
36377;SDS011;22402;42.746;23.606;2023-02-01T11:29:24;13.30;;;3.60;;
36377;SDS011;22402;42.746;23.606;2023-02-01T11:31:51;17.73;;;4.80;;
36377;SDS011;22402;42.746;23.606;2023-02-01T11:34:17;10.33;;;3.53;;
36377;SDS011;22402;42.746;23.606;2023-02-01T11:36:45;13.00;;;4.03;;
36377;SDS011;22402;42.746;23.606;2023-02-01T11:41:40;9.17;;;3.10;;
36377;SDS011;22402;42.746;23.606;2023-02-01T11:44:32;8.00;;;3.00;;
36377;SDS011;22402;42.746;23.606;2023-02-01T11:47:16;6.03;;;2.97;;
36377;SDS011;22402;42.746;23.606;2023-02-01T11:49:44;23.27;;;5.63;;
36377;SDS011;22402;42.746;23.606;2023-02-01T11:57:56;6.43;;;2.50;;
36377;SDS011;22402;42.746;23.606;2023-02-01T12:00:27;21.33;;;4.63;;
36377;SDS011;22402;42.746;23.606;2023-02-01T12:17:37;16.60;;;4.37;;
36377;SDS011;22402;42.746;23.606;2023-02-01T12:22:55;23.60;;;5.17;;
36377;SDS011;22402;42.746;23.606;2023-02-01T12:36:25;16.13;;;4.47;;
36377;SDS011;22402;42.746;23.606;2023-02-01T12:41:57;15.17;;;4.50;;
36377;SDS011;22402;42.746;23.606;2023-02-01T12:44:50;22.00;;;5.20;;
36377;SDS011;22402;42.746;23.606;2023-02-01T12:55:25;21.80;;;5.07;;
36377;SDS011;22402;42.746;23.606;2023-02-01T12:58:06;14.53;;;3.83;;
36377;SDS011;22402;42.746;23.606;2023-02-01T13:00:40;19.20;;;4.70;;
36377;SDS011;22402;42.746;23.606;2023-02-01T13:06:16;25.40;;;5.30;;
36377;SDS011;22402;42.746;23.606;2023-02-01T13:11:36;23.93;;;4.90;;
36377;SDS011;22402;42.746;23.606;2023-02-01T13:17:10;25.53;;;4.63;;
36377;SDS011;22402;42.746;23.606;2023-02-01T13:22:33;18.67;;;4.93;;
36377;SDS011;22402;42.746;23.606;2023-02-01T13:28:00;19.63;;;4.60;;
36377;SDS011;22402;42.746;23.606;2023-02-01T13:30:34;20.37;;;4.97;;
36377;SDS011;22402;42.746;23.606;2023-02-01T13:33:17;28.67;;;5.80;;
36377;SDS011;22402;42.746;23.606;2023-02-01T13:41:55;26.30;;;5.73;;
36377;SDS011;22402;42.746;23.606;2023-02-01T13:44:32;16.67;;;4.23;;
36377;SDS011;22402;42.746;23.606;2023-02-01T13:47:03;26.93;;;5.43;;
36377;SDS011;22402;42.746;23.606;2023-02-01T13:49:56;27.13;;;4.90;;
36377;SDS011;22402;42.746;23.606;2023-02-01T13:52:38;20.90;;;4.33;;
36377;SDS011;22402;42.746;23.606;2023-02-01T13:57:44;22.33;;;5.77;;
36377;SDS011;22402;42.746;23.606;2023-02-01T14:15:48;40.43;;;7.73;;
36377;SDS011;22402;42.746;23.606;2023-02-01T14:23:47;30.10;;;6.13;;
36377;SDS011;22402;42.746;23.606;2023-02-01T14:26:24;39.60;;;10.50;;
36377;SDS011;22402;42.746;23.606;2023-02-01T14:29:39;55.80;;;15.63;;
36377;SDS011;22402;42.746;23.606;2023-02-01T14:42:27;30.13;;;10.80;;
36377;SDS011;22402;42.746;23.606;2023-02-01T14:47:44;31.43;;;6.20;;
36377;SDS011;22402;42.746;23.606;2023-02-01T14:50:13;22.03;;;4.97;;
36377;SDS011;22402;42.746;23.606;2023-02-01T14:53:04;28.70;;;5.30;;
36377;SDS011;22402;42.746;23.606;2023-02-01T15:00:46;28.37;;;6.20;;
36377;SDS011;22402;42.746;23.606;2023-02-01T15:05:59;32.50;;;5.93;;
36377;SDS011;22402;42.746;23.606;2023-02-01T15:08:26;51.23;;;9.00;;
36377;SDS011;22402;42.746;23.606;2023-02-01T15:10:55;35.37;;;6.97;;
36377;SDS011;22402;42.746;23.606;2023-02-01T15:13:26;25.37;;;5.40;;
36377;SDS011;22402;42.746;23.606;2023-02-01T15:16:02;27.53;;;5.50;;
36377;SDS011;22402;42.746;23.606;2023-02-01T15:18:39;25.90;;;5.97;;
36377;SDS011;22402;42.746;23.606;2023-02-01T15:21:05;43.47;;;7.60;;
36377;SDS011;22402;42.746;23.606;2023-02-01T15:23:39;28.40;;;5.70;;
36377;SDS011;22402;42.746;23.606;2023-02-01T15:26:04;28.57;;;6.00;;
36377;SDS011;22402;42.746;23.606;2023-02-01T15:28:30;23.97;;;5.77;;
36377;SDS011;22402;42.746;23.606;2023-02-01T15:30:59;27.63;;;5.40;;
36377;SDS011;22402;42.746;23.606;2023-02-01T15:33:29;27.47;;;5.30;;
36377;SDS011;22402;42.746;23.606;2023-02-01T15:38:32;27.10;;;5.87;;
36377;SDS011;22402;42.746;23.606;2023-02-01T15:41:12;26.90;;;6.30;;
36377;SDS011;22402;42.746;23.606;2023-02-01T15:44:02;19.33;;;5.07;;
36377;SDS011;22402;42.746;23.606;2023-02-01T15:46:53;39.13;;;6.93;;
36377;SDS011;22402;42.746;23.606;2023-02-01T15:51:56;25.17;;;6.27;;
36377;SDS011;22402;42.746;23.606;2023-02-01T15:54:31;94.07;;;16.53;;
36377;SDS011;22402;42.746;23.606;2023-02-01T15:57:05;23.67;;;5.80;;
36377;SDS011;22402;42.746;23.606;2023-02-01T15:59:37;31.50;;;6.37;;
36377;SDS011;22402;42.746;23.606;2023-02-01T16:04:57;43.97;;;9.03;;
36377;SDS011;22402;42.746;23.606;2023-02-01T16:07:27;45.40;;;9.63;;
36377;SDS011;22402;42.746;23.606;2023-02-01T16:09:55;41.57;;;8.47;;
36377;SDS011;22402;42.746;23.606;2023-02-01T16:12:29;43.43;;;9.67;;
36377;SDS011;22402;42.746;23.606;2023-02-01T16:15:13;42.87;;;8.60;;
36377;SDS011;22402;42.746;23.606;2023-02-01T16:17:38;36.40;;;8.00;;
36377;SDS011;22402;42.746;23.606;2023-02-01T16:20:04;39.40;;;9.13;;
36377;SDS011;22402;42.746;23.606;2023-02-01T16:22:30;89.07;;;33.63;;
36377;SDS011;22402;42.746;23.606;2023-02-01T16:24:55;75.00;;;22.03;;
36377;SDS011;22402;42.746;23.606;2023-02-01T16:27:20;42.50;;;10.33;;
36377;SDS011;22402;42.746;23.606;2023-02-01T16:29:46;37.87;;;7.93;;
36377;SDS011;22402;42.746;23.606;2023-02-01T16:32:18;46.03;;;7.30;;
36377;SDS011;22402;42.746;23.606;2023-02-01T16:34:46;52.00;;;9.23;;
36377;SDS011;22402;42.746;23.606;2023-02-01T16:37:21;38.13;;;6.80;;
36377;SDS011;22402;42.746;23.606;2023-02-01T16:39:48;50.37;;;9.10;;
36377;SDS011;22402;42.746;23.606;2023-02-01T16:42:14;38.13;;;7.37;;
36377;SDS011;22402;42.746;23.606;2023-02-01T16:44:40;30.30;;;6.37;;
36377;SDS011;22402;42.746;23.606;2023-02-01T16:47:14;34.70;;;6.83;;
36377;SDS011;22402;42.746;23.606;2023-02-01T16:49:43;38.53;;;7.60;;
36377;SDS011;22402;42.746;23.606;2023-02-01T16:52:13;62.03;;;15.03;;
36377;SDS011;22402;42.746;23.606;2023-02-01T16:54:46;34.60;;;7.00;;
36377;SDS011;22402;42.746;23.606;2023-02-01T16:57:13;22.50;;;5.93;;
36377;SDS011;22402;42.746;23.606;2023-02-01T16:59:40;33.07;;;6.77;;
36377;SDS011;22402;42.746;23.606;2023-02-01T17:02:09;37.53;;;7.40;;
36377;SDS011;22402;42.746;23.606;2023-02-01T17:04:37;45.73;;;8.40;;
36377;SDS011;22402;42.746;23.606;2023-02-01T17:07:02;36.77;;;6.33;;
36377;SDS011;22402;42.746;23.606;2023-02-01T17:09:27;41.47;;;7.27;;
36377;SDS011;22402;42.746;23.606;2023-02-01T17:11:53;32.63;;;6.17;;
36377;SDS011;22402;42.746;23.606;2023-02-01T17:14:19;33.53;;;6.27;;
36377;SDS011;22402;42.746;23.606;2023-02-01T17:16:46;40.80;;;7.07;;
36377;SDS011;22402;42.746;23.606;2023-02-01T17:19:13;48.60;;;8.50;;
36377;SDS011;22402;42.746;23.606;2023-02-01T17:21:42;30.30;;;6.93;;
36377;SDS011;22402;42.746;23.606;2023-02-01T17:24:11;36.57;;;9.37;;
36377;SDS011;22402;42.746;23.606;2023-02-01T17:26:38;40.17;;;7.87;;
36377;SDS011;22402;42.746;23.606;2023-02-01T17:29:03;34.57;;;6.70;;